Terminal Aerodrome Forecast
Issued by NWS Charleston, SC

Home | Current Version | Previous Version | Text Only | Print | Product List | Glossary On
Versions: 1 2 3 4 5 6 7 8 9 10 11 12 13 14 15 16 17
000
FTUS42 KCHS 231735
TAFCHS
TAF
KCHS 231735Z 2318/2418 21006KT P6SM SCT040
     FM240300 VRB03KT P6SM SKC
     FM240900 VRB03KT P6SM SCT050
     FM241600 20007KT P6SM SCT040=

USA.gov is the U.S. government's official web portal to all federal, state and local government web resources and services.